Dayton, Indiana
Current Conditions -  °F | °C
As of 4:54 PM on Thursday 27 Nov 2014 (Local Time) from KLAF Reporting Station
Overcast Overcast  
Wind Chill: 15°   Ceiling: 3900
Heat Index: 26°   Visibility: 10mi
Dew Point: 19°   Wind: 13mph
Humidity: 75%   Direction: 300°WNW
Pressure: 30.38"   Gusts: NA
Location:  40.37°N, 86.77°W
Report Text: KLAF 272154Z 30011KT 10SM SCT022 OVC039 M03/M07 A3038 RMK AO2 SLP294 T10331072
Loading
Personal Weather Stations






























Interactive Weather Map New forecast layout! Learn more

10-Day Weather Forecast

Advertisements
Track Severe Weather on mobile